Time;durP1;ratioP1;P1;durP2;ratioP2;P2;SDS_P1;SDS_P2;PMS_P1;PMS_P2;Temp;Humidity;BMP_temperature;BMP_pressure;BME280_temperature;BME280_humidity;BME280_pressure;Samples;Min_cycle;Max_cycle;Signal;HPM_P1;HPM_P2
2023/05/12 00:02:25;;;;;;;7.95;3.83;;;;;;;10.28;94.90;100976.66;5073166;28;20110;-77
2023/05/12 00:04:50;;;;;;;5.25;3.80;;;;;;;10.07;95.17;100961.06;5072790;28;20028;-77
2023/05/12 00:07:16;;;;;;;9.73;3.90;;;;;;;10.09;95.65;100974.91;5072653;28;20493;-77
2023/05/12 00:09:42;;;;;;;7.60;4.00;;;;;;;9.53;96.09;100889.78;5072671;28;20037;-78
2023/05/12 00:12:08;;;;;;;7.05;4.00;;;;;;;9.94;96.75;100976.78;5072924;28;20471;-77
2023/05/12 00:14:36;;;;;;;7.53;4.35;;;;;;;9.87;97.24;100978.19;5054678;28;20494;-76
2023/05/12 00:17:03;;;;;;;6.25;3.80;;;;;;;9.70;97.89;100974.78;5072655;28;20032;-77
2023/05/12 00:19:28;;;;;;;6.63;3.97;;;;;;;9.46;98.85;100977.91;5072542;28;20028;-81
2023/05/12 00:21:54;;;;;;;9.32;4.32;;;;;;;9.35;99.30;100976.50;5020502;28;20421;-81
2023/05/12 00:24:19;;;;;;;7.90;4.03;;;;;;;9.22;100.00;100967.25;5072309;28;20409;-77
2023/05/12 00:26:45;;;;;;;7.00;4.03;;;;;;;9.41;99.36;100969.09;5072714;28;20470;-77
2023/05/12 00:29:10;;;;;;;7.18;3.90;;;;;;;9.45;98.92;100968.41;5072476;28;20024;-77
2023/05/12 00:31:36;;;;;;;8.07;4.22;;;;;;;9.45;98.58;100962.38;5072480;28;20067;-77
2023/05/12 00:34:01;;;;;;;9.07;4.18;;;;;;;9.04;98.45;100898.56;5070800;28;20020;-76
2023/05/12 00:36:26;;;;;;;9.18;4.60;;;;;;;9.43;98.65;100972.59;5072339;28;20036;-82
2023/05/12 00:38:53;;;;;;;6.72;4.03;;;;;;;9.27;99.17;100959.75;5072030;28;20036;-78
2023/05/12 00:41:19;;;;;;;7.35;4.55;;;;;;;9.27;99.45;100964.91;5072316;28;20029;-77
2023/05/12 00:43:44;;;;;;;8.73;4.88;;;;;;;9.29;99.81;100976.19;5072202;28;20039;-76
2023/05/12 00:46:10;;;;;;;6.32;4.03;;;;;;;9.13;99.86;100964.22;5072172;28;20028;-77
2023/05/12 00:48:36;;;;;;;7.95;4.18;;;;;;;9.02;100.00;100973.97;5072164;28;20577;-75
2023/05/12 00:51:03;;;;;;;9.27;4.90;;;;;;;9.04;100.00;100967.22;5071805;28;20048;-77
2023/05/12 00:53:30;;;;;;;5.88;4.03;;;;;;;8.90;100.00;100939.06;5071601;28;20055;-77
2023/05/12 00:55:56;;;;;;;6.72;4.15;;;;;;;9.19;99.52;100969.69;5071987;28;20040;-77
2023/05/12 00:58:22;;;;;;;7.82;3.95;;;;;;;9.30;99.58;100973.69;5071896;28;20032;-77
2023/05/12 01:00:47;;;;;;;7.85;4.35;;;;;;;9.29;98.73;100945.28;5071747;28;20422;-77
2023/05/12 01:03:13;;;;;;;7.07;4.13;;;;;;;9.65;97.37;100983.97;5071888;28;20035;-77
2023/05/12 01:05:46;;;;;;;6.40;4.25;;;;;;;9.73;97.00;100972.34;5071753;28;20039;-76
2023/05/12 01:08:12;;;;;;;9.60;4.38;;;;;;;9.81;96.50;100983.03;5071273;28;20165;-77
2023/05/12 01:10:43;;;;;;;8.07;4.13;;;;;;;9.88;96.09;100987.66;5071596;28;20466;-77
2023/05/12 01:13:08;;;;;;;8.43;4.60;;;;;;;9.97;96.04;100972.63;5071671;28;20387;-77
2023/05/12 01:15:36;;;;;;;6.88;3.85;;;;;;;9.52;95.04;100888.00;5071301;28;20024;-77
2023/05/12 01:18:04;;;;;;;8.80;4.88;;;;;;;9.90;95.27;100969.72;5071430;28;20032;-77
2023/05/12 01:20:30;;;;;;;6.25;4.20;;;;;;;9.75;96.15;100975.88;5071384;28;20054;-77
2023/05/12 01:22:57;;;;;;;6.68;3.72;;;;;;;9.46;96.70;100958.97;5071549;28;20494;-75
2023/05/12 01:25:24;;;;;;;7.68;3.65;;;;;;;9.26;97.18;100948.59;5071369;28;20024;-77
2023/05/12 01:27:49;;;;;;;6.13;4.03;;;;;;;9.16;97.91;100943.75;5071006;28;20032;-77
2023/05/12 01:30:17;;;;;;;10.32;4.00;;;;;;;9.22;98.68;100968.16;5071230;28;20032;-77
2023/05/12 01:32:43;;;;;;;6.93;3.88;;;;;;;9.15;98.67;100967.78;5071060;28;20414;-77
2023/05/12 01:35:08;;;;;;;7.13;4.20;;;;;;;8.42;99.61;100866.19;5070718;28;20028;-77
2023/05/12 01:37:34;;;;;;;9.25;4.40;;;;;;;8.92;99.90;100952.00;5071456;28;20032;-77
2023/05/12 01:39:59;;;;;;;6.57;4.10;;;;;;;8.76;100.00;100970.06;5071130;28;20032;-77
2023/05/12 01:42:25;;;;;;;7.13;4.00;;;;;;;8.63;100.00;100973.69;5071329;28;20491;-77
2023/05/12 01:44:50;;;;;;;7.45;4.82;;;;;;;8.49;100.00;100970.38;5070715;28;20107;-77
2023/05/12 01:47:15;;;;;;;7.45;3.97;;;;;;;8.52;100.00;100966.28;5070635;28;20467;-77
2023/05/12 01:49:41;;;;;;;8.55;4.57;;;;;;;8.34;100.00;100949.81;5070527;28;20032;-77
2023/05/12 01:52:06;;;;;;;7.57;4.38;;;;;;;8.56;100.00;100969.88;5070745;28;20032;-76
2023/05/12 01:54:32;;;;;;;7.53;4.18;;;;;;;8.68;100.00;100960.22;5070879;28;20028;-76
2023/05/12 01:56:57;;;;;;;6.70;4.35;;;;;;;8.54;100.00;100914.91;5070797;28;20036;-76
2023/05/12 01:59:22;;;;;;;8.32;4.50;;;;;;;8.52;100.00;100896.81;5070764;28;20028;-77
2023/05/12 02:01:48;;;;;;;7.78;4.53;;;;;;;8.49;100.00;100880.31;5007523;28;20060;-76
2023/05/12 02:04:13;;;;;;;7.57;4.40;;;;;;;8.89;100.00;100955.31;5050431;28;20040;-77
2023/05/12 02:06:39;;;;;;;7.30;4.20;;;;;;;8.83;100.00;100956.69;5050931;28;20083;-77
2023/05/12 02:09:04;;;;;;;6.78;4.70;;;;;;;8.73;100.00;100950.19;5050520;28;20029;-77
2023/05/12 02:11:30;;;;;;;6.22;4.35;;;;;;;8.64;100.00;100965.16;5050678;28;20032;-78
2023/05/12 02:13:55;;;;;;;6.30;4.22;;;;;;;8.03;100.00;100878.72;5050453;28;20493;-77
2023/05/12 02:16:21;;;;;;;7.90;4.30;;;;;;;8.53;100.00;100972.31;5050169;28;20028;-81
2023/05/12 02:18:47;;;;;;;6.93;4.13;;;;;;;8.48;100.00;100942.88;5050331;28;20025;-77
2023/05/12 02:21:12;;;;;;;7.03;4.25;;;;;;;8.41;100.00;100972.47;5050412;28;20029;-77
2023/05/12 02:23:38;;;;;;;8.80;3.92;;;;;;;8.16;100.00;100973.75;5050264;28;20142;-76
2023/05/12 02:26:03;;;;;;;6.55;4.07;;;;;;;7.69;100.00;100906.06;5050484;28;20162;-77
2023/05/12 02:28:29;;;;;;;6.97;4.10;;;;;;;8.15;100.00;100956.53;5050141;28;20025;-76
2023/05/12 02:30:54;;;;;;;8.18;4.20;;;;;;;8.46;100.00;100977.88;5050147;28;20029;-77
2023/05/12 02:33:21;;;;;;;6.25;4.30;;;;;;;8.02;100.00;100907.81;5031328;28;20048;-77
2023/05/12 02:35:47;;;;;;;5.40;3.97;;;;;;;8.31;100.00;100957.38;5050461;28;20029;-77
2023/05/12 02:38:13;;;;;;;5.80;4.03;;;;;;;8.30;100.00;100947.88;5050109;28;20044;-79
2023/05/12 02:40:38;;;;;;;8.75;4.10;;;;;;;8.48;100.00;100963.47;5050132;28;20056;-77
2023/05/12 02:43:04;;;;;;;5.80;3.88;;;;;;;8.49;100.00;100960.09;5050386;28;20037;-77
2023/05/12 02:45:30;;;;;;;7.53;4.15;;;;;;;7.85;100.00;100879.50;5049935;28;20049;-77
2023/05/12 02:47:55;;;;;;;6.97;4.07;;;;;;;8.32;100.00;100962.59;5049584;28;20025;-76
2023/05/12 02:50:21;;;;;;;6.32;4.00;;;;;;;8.49;100.00;100971.25;5049994;28;20029;-77
2023/05/12 02:52:47;;;;;;;7.65;4.57;;;;;;;8.44;100.00;100967.53;5050055;28;20133;-77
2023/05/12 02:55:12;;;;;;;5.85;4.00;;;;;;;8.32;100.00;100928.28;5050088;28;20036;-76
2023/05/12 02:57:38;;;;;;;7.18;4.90;;;;;;;8.47;100.00;100959.09;5051531;28;20029;-76
2023/05/12 03:00:05;;;;;;;8.50;4.05;;;;;;;8.25;100.00;100907.38;5052645;28;20044;-77
2023/05/12 03:02:32;;;;;;;6.97;4.05;;;;;;;8.63;100.00;100971.09;5035296;28;20136;-76
2023/05/12 03:04:57;;;;;;;7.82;4.55;;;;;;;8.69;100.00;100976.59;5034145;28;20029;-77
2023/05/12 03:07:22;;;;;;;12.65;4.43;;;;;;;8.60;100.00;100979.56;5033933;28;20518;-77
2023/05/12 03:09:48;;;;;;;7.35;4.40;;;;;;;8.37;100.00;100986.00;5015042;28;20040;-78
2023/05/12 03:12:14;;;;;;;10.57;4.43;;;;;;;8.34;100.00;100980.69;5033998;28;20044;-75
2023/05/12 03:14:39;;;;;;;9.05;4.45;;;;;;;7.85;100.00;100894.03;5033796;28;20399;-77
2023/05/12 03:17:04;;;;;;;5.38;3.97;;;;;;;8.34;100.00;100962.69;5033695;28;20035;-77
2023/05/12 03:19:30;;;;;;;7.28;4.57;;;;;;;8.57;100.00;100985.44;5033533;28;20080;-75
2023/05/12 03:21:56;;;;;;;6.90;4.82;;;;;;;8.03;99.91;100876.16;5033920;28;20025;-77
2023/05/12 03:24:25;;;;;;;5.45;4.05;;;;;;;8.44;99.48;100926.34;5051367;28;20399;-77
2023/05/12 03:26:50;;;;;;;9.77;4.47;;;;;;;8.79;98.55;100972.81;5053348;28;20560;-77
2023/05/12 03:29:16;;;;;;;6.00;4.47;;;;;;;8.99;98.24;100990.16;5053754;28;20029;-77
2023/05/12 03:31:41;;;;;;;9.57;4.15;;;;;;;9.03;98.08;100986.06;5053250;28;20028;-79
2023/05/12 03:34:06;;;;;;;12.13;4.78;;;;;;;9.11;98.31;100996.75;5053210;28;20075;-76
2023/05/12 03:36:32;;;;;;;8.32;5.05;;;;;;;9.17;98.02;100992.81;5053597;28;20021;-77
2023/05/12 03:38:57;;;;;;;8.25;4.38;;;;;;;8.90;97.36;100930.47;5053109;28;20025;-79
2023/05/12 03:41:23;;;;;;;7.85;4.45;;;;;;;9.15;96.56;100976.38;5053571;28;20392;-76
2023/05/12 03:43:48;;;;;;;8.48;4.88;;;;;;;9.07;96.76;100982.81;5053568;28;20410;-77
2023/05/12 03:46:13;;;;;;;6.90;4.05;;;;;;;9.22;96.51;100999.06;5035329;28;20509;-77
2023/05/12 03:48:39;;;;;;;10.15;4.32;;;;;;;9.23;96.54;101012.81;5058445;28;20051;-77
2023/05/12 03:51:05;;;;;;;7.40;4.25;;;;;;;8.97;98.21;100986.63;5073396;28;20040;-77
2023/05/12 03:53:30;;;;;;;11.30;4.30;;;;;;;8.81;97.67;100951.47;5073083;28;20055;-77
2023/05/12 03:55:56;;;;;;;8.18;4.30;;;;;;;9.20;98.02;101030.72;5072881;28;20099;-76
2023/05/12 03:58:22;;;;;;;7.68;3.92;;;;;;;9.21;97.09;101019.63;5073146;28;20028;-77
2023/05/12 04:00:49;;;;;;;6.70;4.18;;;;;;;9.17;96.48;101023.72;5065093;28;20048;-77
2023/05/12 04:03:15;;;;;;;9.48;4.20;;;;;;;9.13;96.76;101021.78;5042562;28;20197;-77
2023/05/12 04:05:41;;;;;;;5.88;3.65;;;;;;;9.10;97.13;101013.00;5033144;28;20160;-77
2023/05/12 04:08:07;;;;;;;7.10;4.00;;;;;;;9.05;96.44;101005.06;5032645;28;20457;-76
2023/05/12 04:10:39;;;;;;;7.22;4.18;;;;;;;9.05;96.30;101010.22;5032971;28;20103;-77
2023/05/12 04:13:06;;;;;;;5.03;3.80;;;;;;;9.13;96.66;101028.63;5038624;28;20037;-76
2023/05/12 04:15:35;;;;;;;10.25;4.18;;;;;;;8.97;97.23;101022.69;5047572;28;20051;-75
2023/05/12 04:18:02;;;;;;;8.93;4.73;;;;;;;8.93;97.70;101027.59;5052691;28;20029;-73
2023/05/12 04:20:27;;;;;;;7.47;4.00;;;;;;;8.53;99.74;101031.50;5049562;28;20035;-74
2023/05/12 04:22:52;;;;;;;6.70;4.30;;;;;;;8.12;100.00;100971.78;5052726;28;20017;-76
2023/05/12 04:25:18;;;;;;;8.55;4.10;;;;;;;8.62;100.00;101038.81;5052460;28;20398;-76
2023/05/12 04:27:43;;;;;;;6.38;4.47;;;;;;;8.74;100.00;101034.34;5052555;28;20028;-75
2023/05/12 04:30:09;;;;;;;6.95;4.25;;;;;;;8.81;100.00;101033.88;5052099;28;20108;-76
2023/05/12 04:32:35;;;;;;;8.15;4.30;;;;;;;8.84;99.39;101025.41;5034524;28;20037;-77
2023/05/12 04:35:00;;;;;;;10.80;4.55;;;;;;;8.99;100.00;101033.06;5052395;28;20029;-77
2023/05/12 04:37:26;;;;;;;9.32;4.38;;;;;;;8.85;99.57;100991.16;5052379;28;20035;-77
2023/05/12 04:39:51;;;;;;;7.15;3.90;;;;;;;9.00;98.83;101012.53;5051975;28;20379;-77
2023/05/12 04:42:17;;;;;;;12.05;4.35;;;;;;;9.01;98.48;101000.53;5052407;28;20033;-77
2023/05/12 04:44:44;;;;;;;7.30;4.60;;;;;;;9.21;98.61;101028.22;5052191;28;20037;-77
2023/05/12 04:47:10;;;;;;;6.13;4.13;;;;;;;9.20;98.68;101013.56;5052393;28;20033;-79
2023/05/12 04:49:35;;;;;;;9.30;4.57;;;;;;;9.26;98.10;100991.47;5055418;28;20403;-79
2023/05/12 04:52:01;;;;;;;7.38;4.50;;;;;;;9.29;99.34;101007.13;5049255;28;20041;-78
2023/05/12 04:54:26;;;;;;;7.28;4.05;;;;;;;9.35;100.00;101025.47;5049439;28;20538;-77
2023/05/12 04:56:52;;;;;;;10.57;4.63;;;;;;;9.37;100.00;101028.97;5049318;28;20037;-77
2023/05/12 04:59:17;;;;;;;8.43;3.85;;;;;;;8.99;100.00;100948.09;5049089;28;20040;-77
2023/05/12 05:01:43;;;;;;;6.13;3.97;;;;;;;9.54;99.68;101038.47;5049035;28;20103;-77
2023/05/12 05:04:08;;;;;;;5.65;4.20;;;;;;;9.50;98.55;101015.03;5032346;28;20455;-77
2023/05/12 05:06:34;;;;;;;8.25;4.20;;;;;;;9.44;99.18;101002.72;5049141;28;20112;-77
2023/05/12 05:08:59;;;;;;;7.85;4.85;;;;;;;9.67;100.00;101027.06;5048895;28;20178;-76
2023/05/12 05:11:25;;;;;;;12.10;4.97;;;;;;;9.48;100.00;100996.94;5049525;28;20047;-77
2023/05/12 05:13:50;;;;;;;9.98;4.90;;;;;;;9.70;100.00;101021.19;5049148;28;20072;-78
2023/05/12 05:16:16;;;;;;;8.85;5.40;;;;;;;9.90;100.00;101031.59;5049060;28;20440;-78
2023/05/12 05:18:45;;;;;;;9.65;4.57;;;;;;;9.85;100.00;101034.81;5049045;28;20128;-77
2023/05/12 05:21:13;;;;;;;7.88;4.05;;;;;;;9.83;100.00;101031.31;5031664;28;20604;-76
2023/05/12 05:23:38;;;;;;;6.60;3.95;;;;;;;9.85;100.00;101037.41;5048689;28;20104;-81
2023/05/12 05:26:03;;;;;;;7.32;4.63;;;;;;;9.58;100.00;100962.16;5048805;28;20072;-76
2023/05/12 05:28:29;;;;;;;5.50;3.95;;;;;;;9.93;100.00;101005.94;5050811;28;20040;-77
2023/05/12 05:30:55;;;;;;;6.65;3.88;;;;;;;9.40;99.97;100892.56;5071345;28;20043;-77
2023/05/12 05:33:20;;;;;;;5.75;4.32;;;;;;;10.30;100.00;101028.34;5053461;28;20032;-77
2023/05/12 05:35:46;;;;;;;7.63;3.50;;;;;;;10.49;99.98;101025.84;5071285;28;20043;-77
2023/05/12 05:38:12;;;;;;;8.40;4.15;;;;;;;10.56;98.61;101026.13;5070885;28;20402;-77
2023/05/12 05:40:38;;;;;;;13.43;6.40;;;;;;;10.64;99.41;101017.91;5071137;28;20032;-79
2023/05/12 05:43:03;;;;;;;9.85;4.10;;;;;;;10.77;98.54;101021.94;5070796;28;20055;-78
2023/05/12 05:45:29;;;;;;;7.40;4.47;;;;;;;10.93;97.50;101013.16;5071043;28;20420;-77
2023/05/12 05:47:54;;;;;;;7.22;4.30;;;;;;;11.11;98.10;101017.38;5052881;28;20411;-76
2023/05/12 05:50:19;;;;;;;6.38;3.60;;;;;;;11.00;92.83;100998.81;5070893;28;20029;-76
2023/05/12 05:52:45;;;;;;;4.10;2.90;;;;;;;10.88;92.09;100956.94;5035410;28;20419;-77
2023/05/12 05:55:10;;;;;;;10.00;3.70;;;;;;;11.28;93.06;101012.94;5070637;28;20400;-79
2023/05/12 05:57:36;;;;;;;5.88;3.78;;;;;;;10.92;93.27;100931.31;5070309;28;20040;-77
2023/05/12 06:00:03;;;;;;;5.80;3.45;;;;;;;11.17;93.46;100945.28;5070822;28;20471;-80
2023/05/12 06:02:30;;;;;;;5.50;3.05;;;;;;;11.39;89.19;100957.41;5052691;28;20465;-77
2023/05/12 06:04:56;;;;;;;7.93;3.85;;;;;;;11.63;89.07;101005.78;5070854;28;20024;-77
2023/05/12 06:07:21;;;;;;;7.38;3.83;;;;;;;11.65;89.38;101009.28;5070715;28;20375;-77
2023/05/12 06:09:47;;;;;;;5.65;3.40;;;;;;;11.77;88.92;101012.38;5070510;28;20107;-76
2023/05/12 06:12:12;;;;;;;6.18;3.22;;;;;;;11.82;90.55;100981.53;5070138;28;20486;-77
2023/05/12 06:14:37;;;;;;;6.82;3.33;;;;;;;11.88;88.03;100983.50;5070695;28;20029;-77
2023/05/12 06:17:03;;;;;;;6.13;3.20;;;;;;;12.05;88.87;101005.78;5069115;28;20040;-78
2023/05/12 06:19:29;;;;;;;5.97;3.33;;;;;;;12.08;88.21;101015.38;5050750;28;20052;-77
2023/05/12 06:21:54;;;;;;;6.70;3.15;;;;;;;12.27;88.25;101019.53;5032347;28;20036;-82
2023/05/12 06:24:20;;;;;;;8.15;4.13;;;;;;;12.16;89.07;100994.94;5027899;28;20400;-77
2023/05/12 06:26:45;;;;;;;6.18;3.25;;;;;;;12.24;89.92;101009.09;5027767;28;20045;-78
2023/05/12 06:29:11;;;;;;;7.60;3.63;;;;;;;12.41;92.92;101018.38;5027720;28;20041;-78
2023/05/12 06:31:36;;;;;;;6.90;3.50;;;;;;;12.11;89.41;100950.78;5028093;28;20479;-78
2023/05/12 06:34:02;;;;;;;8.45;3.72;;;;;;;12.12;89.41;100942.19;5027839;28;20467;-77
2023/05/12 06:36:28;;;;;;;7.63;3.80;;;;;;;12.24;88.70;100936.59;5027856;28;20431;-77
2023/05/12 06:38:54;;;;;;;6.22;3.63;;;;;;;12.23;87.43;100908.94;5027728;28;20041;-76
2023/05/12 06:41:20;;;;;;;6.85;3.63;;;;;;;12.91;86.10;101010.72;5027722;28;20055;-77
2023/05/12 06:43:46;;;;;;;7.57;3.30;;;;;;;12.98;87.91;101010.94;5027644;28;20080;-77
2023/05/12 06:46:13;;;;;;;5.93;3.30;;;;;;;12.88;85.44;101007.13;5027731;28;20033;-77
2023/05/12 06:48:38;;;;;;;9.88;2.97;;;;;;;13.02;84.58;101018.00;5027616;28;20049;-78
2023/05/12 06:51:04;;;;;;;5.22;3.47;;;;;;;13.16;86.51;101010.69;5027615;28;20118;-78
2023/05/12 06:53:29;;;;;;;8.00;3.53;;;;;;;13.16;83.49;101013.28;5027909;28;20029;-77
2023/05/12 06:55:55;;;;;;;6.65;3.00;;;;;;;13.07;84.09;100994.00;5044228;28;20120;-77
2023/05/12 06:58:20;;;;;;;9.60;3.33;;;;;;;13.23;86.27;101012.69;5050322;28;20025;-78
2023/05/12 07:00:46;;;;;;;10.20;3.40;;;;;;;13.23;83.21;101016.19;5050285;28;20060;-77
2023/05/12 07:03:12;;;;;;;6.78;3.53;;;;;;;13.21;83.01;101012.63;5049921;28;20079;-76
2023/05/12 07:05:38;;;;;;;6.32;3.28;;;;;;;13.32;83.14;101014.72;5050304;28;20044;-77
2023/05/12 07:08:04;;;;;;;5.65;3.17;;;;;;;13.28;84.19;101016.31;5048957;28;20119;-78
2023/05/12 07:10:31;;;;;;;5.35;3.00;;;;;;;13.11;82.17;100995.88;5049040;28;20029;-79
2023/05/12 07:12:57;;;;;;;7.70;3.42;;;;;;;13.28;83.18;101024.09;5035291;28;20116;-78
2023/05/12 07:15:22;;;;;;;7.13;3.47;;;;;;;13.33;82.51;101017.34;5037913;28;20033;-78
2023/05/12 07:17:47;;;;;;;8.43;3.53;;;;;;;13.44;84.42;101009.97;5038197;28;20028;-78
2023/05/12 07:20:13;;;;;;;7.38;3.22;;;;;;;13.56;82.19;101022.50;5003545;28;20049;-78
2023/05/12 07:22:38;;;;;;;8.35;3.50;;;;;;;13.62;80.76;101012.31;5049562;28;20115;-78
2023/05/12 07:25:24;;;;;;;6.03;3.10;;;;;;;13.67;80.35;101015.94;5049508;28;20471;-78
2023/05/12 07:27:49;;;;;;;6.13;3.00;;;;;;;13.84;79.96;101018.22;4986737;28;20038;-78
2023/05/12 07:30:15;;;;;;;6.15;2.80;;;;;;;13.85;78.45;101007.88;4971322;28;20041;-77
2023/05/12 07:32:41;;;;;;;6.40;2.80;;;;;;;13.95;79.01;101014.25;4987679;28;20053;-77
2023/05/12 07:35:08;;;;;;;7.18;3.55;;;;;;;13.98;80.34;101016.94;4987949;28;20045;-76
2023/05/12 07:37:35;;;;;;;9.70;3.63;;;;;;;13.94;80.54;101028.03;4987559;28;20096;-77
2023/05/12 07:40:00;;;;;;;10.98;3.83;;;;;;;13.46;80.57;100943.50;4986995;28;20030;-78
2023/05/12 07:42:25;;;;;;;10.52;3.30;;;;;;;13.64;80.18;100973.44;4991145;28;20042;-80
2023/05/12 07:44:51;;;;;;;5.45;2.97;;;;;;;14.01;79.24;101026.53;4999476;28;20038;-78
2023/05/12 07:47:16;;;;;;;6.85;3.20;;;;;;;14.05;78.89;101021.47;4999632;28;20389;-79
2023/05/12 07:49:42;;;;;;;5.65;3.10;;;;;;;14.08;77.20;101016.41;5001119;28;20507;-76
2023/05/12 07:52:08;;;;;;;5.25;3.38;;;;;;;14.12;76.37;101016.47;5001036;28;20035;-81
2023/05/12 07:54:34;;;;;;;6.72;2.95;;;;;;;14.21;77.53;101020.25;4999410;28;20042;-78
2023/05/12 07:56:59;;;;;;;5.88;2.88;;;;;;;14.27;76.47;101016.97;5001145;28;20034;-79
2023/05/12 07:59:25;;;;;;;6.53;2.90;;;;;;;14.24;76.57;100999.56;5039273;28;20041;-77
2023/05/12 08:01:50;;;;;;;4.43;2.75;;;;;;;14.38;74.98;101012.97;5052493;28;20045;-78
2023/05/12 08:04:16;;;;;;;5.57;2.90;;;;;;;14.43;75.33;101010.53;5052529;28;20033;-78
2023/05/12 08:06:41;;;;;;;7.25;3.60;;;;;;;14.54;75.00;101001.31;5052436;28;20682;-77
2023/05/12 08:09:06;;;;;;;8.57;3.70;;;;;;;14.69;74.78;101021.72;5052023;28;20025;-77
2023/05/12 08:11:32;;;;;;;5.80;2.85;;;;;;;14.78;74.61;101022.78;5047300;28;20025;-78
2023/05/12 08:13:57;;;;;;;6.90;3.40;;;;;;;14.43;75.39;100968.97;5050207;28;20399;-78
2023/05/12 08:16:23;;;;;;;7.80;3.08;;;;;;;14.74;76.01;101023.56;5050759;28;20021;-78
2023/05/12 08:18:48;;;;;;;6.07;2.97;;;;;;;14.75;76.19;101027.91;5051866;28;20110;-76
2023/05/12 08:21:14;;;;;;;5.55;3.03;;;;;;;14.64;76.19;101023.28;5052246;28;20029;-76
2023/05/12 08:23:39;;;;;;;7.07;3.10;;;;;;;14.21;74.51;100960.50;5033780;28;20021;-76
2023/05/12 08:26:05;;;;;;;6.32;3.45;;;;;;;14.71;74.30;101020.03;5052216;28;20067;-80
2023/05/12 08:28:31;;;;;;;5.30;2.88;;;;;;;14.72;75.47;101011.38;5051717;28;20025;-77
2023/05/12 08:30:57;;;;;;;7.90;3.05;;;;;;;14.72;74.68;101006.19;5051622;28;20035;-76
2023/05/12 08:33:23;;;;;;;6.60;3.30;;;;;;;14.67;76.06;100997.38;5025702;28;20087;-77
2023/05/12 08:35:49;;;;;;;8.98;3.20;;;;;;;14.84;77.30;101021.28;5051762;28;20025;-77
2023/05/12 08:38:15;;;;;;;5.03;3.20;;;;;;;14.77;75.54;100979.47;5047802;28;20030;-78
2023/05/12 08:41:05;;;;;;;5.38;3.03;;;;;;;14.92;75.34;100958.22;5032018;28;20116;-77
2023/05/12 08:43:40;;;;;;;4.53;2.58;;;;;;;15.40;72.24;101025.34;5031944;28;20139;-76
2023/05/12 08:46:06;;;;;;;5.43;2.47;;;;;;;15.41;68.12;101014.09;5039288;28;20087;-76
2023/05/12 08:48:34;;;;;;;5.43;2.33;;;;;;;15.51;68.77;101023.94;5021436;28;20463;-77
2023/05/12 08:51:02;;;;;;;5.97;2.45;;;;;;;15.57;67.86;101025.78;5036879;28;20025;-82
2023/05/12 08:53:28;;;;;;;4.97;2.55;;;;;;;15.47;71.38;101018.59;4997022;28;20121;-79
2023/05/12 08:55:55;;;;;;;8.02;2.90;;;;;;;15.58;71.61;101014.53;5007375;28;20042;-76
2023/05/12 08:58:21;;;;;;;4.53;2.83;;;;;;;15.90;69.94;101027.53;5001674;28;20536;-75
2023/05/12 09:00:46;;;;;;;5.28;2.85;;;;;;;15.35;68.16;100931.59;4999614;28;20092;-75
2023/05/12 09:03:13;;;;;;;6.95;2.50;;;;;;;15.82;69.04;101008.22;5004338;28;20390;-76
2023/05/12 09:05:40;;;;;;;6.85;2.83;;;;;;;15.94;69.64;101011.13;5009706;28;20131;-76
2023/05/12 09:08:10;;;;;;;6.32;2.40;;;;;;;16.11;70.28;101000.19;4993460;28;20436;-82
2023/05/12 09:10:39;;;;;;;4.97;2.60;;;;;;;16.10;71.13;100959.38;4993772;28;20045;-76
2023/05/12 09:13:45;;;;;;;7.60;2.83;;;;;;;16.23;67.36;100976.16;5009367;28;20056;-75
2023/05/12 09:16:12;;;;;;;8.02;2.63;;;;;;;16.08;67.00;100964.56;4931697;29;20040;-74
2023/05/12 09:18:49;;;;;;;6.55;2.90;;;;;;;16.23;67.35;101015.25;4932258;29;20169;-73
2023/05/12 09:21:14;;;;;;;6.47;2.80;;;;;;;16.17;66.11;101010.75;4931381;29;20066;-73
2023/05/12 09:24:06;;;;;;;5.70;3.05;;;;;;;16.20;68.74;100996.91;4934887;29;20490;-72
2023/05/12 09:26:52;;;;;;;5.05;2.30;;;;;;;16.22;65.03;101003.94;4952523;28;20049;-72
2023/05/12 09:29:19;;;;;;;4.63;2.17;;;;;;;16.18;65.94;101004.72;4969526;28;20027;-73
2023/05/12 09:31:56;;;;;;;4.28;2.25;;;;;;;16.23;63.89;100994.41;4969293;28;20075;-73
2023/05/12 09:34:34;;;;;;;8.57;2.83;;;;;;;16.29;62.95;100992.78;4969453;28;20051;-74
2023/05/12 09:37:02;;;;;;;7.47;2.30;;;;;;;16.48;64.34;100995.81;4953066;28;20106;-76
2023/05/12 09:39:28;;;;;;;5.97;2.90;;;;;;;16.61;64.66;100982.19;4959109;28;20046;-74
2023/05/12 09:41:54;;;;;;;4.85;2.60;;;;;;;16.84;61.50;101000.00;4969129;28;20067;-71
2023/05/12 09:44:20;;;;;;;3.22;2.20;;;;;;;16.76;61.41;100991.16;4968862;28;20051;-74
2023/05/12 09:46:46;;;;;;;5.47;2.30;;;;;;;16.73;60.71;100962.41;4968405;28;20047;-77
2023/05/12 09:49:18;;;;;;;5.05;2.38;;;;;;;17.05;62.03;100986.53;4968921;28;20037;-73
2023/05/12 09:51:43;;;;;;;6.43;2.22;;;;;;;16.85;61.05;100969.59;4969851;28;20073;-76
2023/05/12 09:54:09;;;;;;;5.18;2.65;;;;;;;16.98;61.62;100980.34;5050005;28;20083;-73
2023/05/12 09:56:37;;;;;;;5.75;2.50;;;;;;;16.81;59.55;100966.94;5050210;28;20044;-73
2023/05/12 09:59:04;;;;;;;7.65;2.70;;;;;;;16.75;63.07;100985.06;5030652;28;20112;-75
2023/05/12 10:01:30;;;;;;;5.47;2.30;;;;;;;16.75;59.15;100984.19;5049177;28;20052;-74
2023/05/12 10:03:57;;;;;;;4.80;2.05;;;;;;;16.81;61.58;100958.25;5050033;28;20037;-75
2023/05/12 10:06:27;;;;;;;5.20;1.98;;;;;;;16.75;59.38;100989.41;5027301;28;20037;-76
2023/05/12 10:08:52;;;;;;;5.38;2.40;;;;;;;16.79;62.13;100959.94;5027535;28;20099;-75
2023/05/12 10:11:20;;;;;;;6.45;2.50;;;;;;;17.25;59.35;100994.72;5027774;28;20025;-76
2023/05/12 10:13:46;;;;;;;5.15;2.10;;;;;;;17.42;58.26;100986.31;5011212;28;20033;-77
2023/05/12 10:16:13;;;;;;;5.05;2.08;;;;;;;17.52;55.38;100966.47;5027142;28;20044;-73
2023/05/12 10:18:43;;;;;;;4.72;2.05;;;;;;;17.77;54.80;100959.91;5029683;28;20034;-79
2023/05/12 10:21:12;;;;;;;2.58;1.65;;;;;;;17.35;51.83;100867.88;5027293;28;20041;-76
2023/05/12 10:23:42;;;;;;;4.45;1.73;;;;;;;17.60;53.08;100910.91;5027762;28;20025;-75
2023/05/12 10:26:10;;;;;;;5.05;2.15;;;;;;;17.48;52.87;100840.22;5027385;28;20124;-77
2023/05/12 10:28:36;;;;;;;3.22;1.80;;;;;;;18.16;50.42;100943.06;5009101;28;20034;-75
2023/05/12 10:31:04;;;;;;;7.57;2.25;;;;;;;18.01;50.71;100964.63;5026940;28;20087;-78
2023/05/12 10:33:33;;;;;;;5.13;1.80;;;;;;;17.99;50.45;100937.59;5028211;28;20029;-73
2023/05/12 10:35:58;;;;;;;4.15;2.00;;;;;;;18.09;50.77;100946.44;5027433;28;20052;-73
2023/05/12 10:38:24;;;;;;;5.55;1.90;;;;;;;17.52;49.60;100810.72;5030020;28;20575;-74
2023/05/12 10:40:58;;;;;;;6.63;1.95;;;;;;;18.39;50.76;100971.22;5049570;28;20029;-73
2023/05/12 10:43:33;;;;;;;8.02;2.20;;;;;;;18.16;52.23;100940.44;5049599;28;20044;-73
2023/05/12 10:46:06;;;;;;;6.05;2.50;;;;;;;18.31;50.06;100952.84;5031841;28;20380;-71
2023/05/12 10:48:32;;;;;;;5.20;1.95;;;;;;;18.48;51.00;100962.63;5031548;28;20117;-77
2023/05/12 10:51:06;;;;;;;5.82;1.90;;;;;;;18.53;49.62;100945.25;5049859;28;20529;-72
2023/05/12 10:53:33;;;;;;;4.90;2.00;;;;;;;18.37;50.20;100905.00;5049229;28;20471;-75
2023/05/12 10:56:04;;;;;;;5.57;2.20;;;;;;;18.56;48.40;100942.69;5049331;28;20079;-73
2023/05/12 10:58:30;;;;;;;7.25;2.28;;;;;;;18.61;50.44;100950.59;5050388;28;20017;-73
2023/05/12 11:01:04;;;;;;;5.50;2.00;;;;;;;18.81;49.32;100928.13;5031868;28;20110;-74
2023/05/12 11:03:30;;;;;;;6.18;1.85;;;;;;;19.01;48.76;100958.91;5031187;28;20036;-73
2023/05/12 11:06:05;;;;;;;5.72;1.85;;;;;;;19.17;47.12;100947.72;5049193;28;20478;-74
2023/05/12 11:08:33;;;;;;;2.47;1.88;;;;;;;19.25;46.92;100945.16;5049206;28;20553;-73
2023/05/12 11:10:59;;;;;;;4.07;1.67;;;;;;;19.13;45.33;100927.63;5049771;28;20112;-72
2023/05/12 11:13:25;;;;;;;4.35;1.88;;;;;;;19.44;42.63;100929.59;5049273;28;20108;-72
2023/05/12 11:15:52;;;;;;;6.50;1.90;;;;;;;19.63;44.70;100948.97;5047735;28;20131;-74
2023/05/12 11:18:21;;;;;;;4.45;1.80;;;;;;;19.58;45.12;100921.84;5032321;28;20021;-74
2023/05/12 11:20:48;;;;;;;6.20;2.33;;;;;;;19.41;45.89;100896.41;5053158;28;20120;-72
2023/05/12 11:23:28;;;;;;;8.93;2.20;;;;;;;19.45;45.21;100919.16;5052762;28;20041;-73
2023/05/12 11:25:54;;;;;;;5.88;1.88;;;;;;;19.61;47.26;100940.22;4998463;28;20483;-74